sensor_id;sensor_type;location;lat;lon;timestamp;temperature;humidity
6752;DHT22;3413;47.680;9.166;2023-05-28T00:01:16;21.80;70.70
6752;DHT22;3413;47.680;9.166;2023-05-28T00:06:19;21.60;70.60
6752;DHT22;3413;47.680;9.166;2023-05-28T00:11:21;21.50;70.60
6752;DHT22;3413;47.680;9.166;2023-05-28T00:16:23;21.40;70.50
6752;DHT22;3413;47.680;9.166;2023-05-28T00:21:25;21.30;70.60
6752;DHT22;3413;47.680;9.166;2023-05-28T00:26:28;21.20;70.50
6752;DHT22;3413;47.680;9.166;2023-05-28T00:31:32;21.20;70.60
6752;DHT22;3413;47.680;9.166;2023-05-28T00:36:34;21.10;70.40
6752;DHT22;3413;47.680;9.166;2023-05-28T00:41:36;21.00;70.40
6752;DHT22;3413;47.680;9.166;2023-05-28T00:46:42;20.90;70.60
6752;DHT22;3413;47.680;9.166;2023-05-28T00:51:44;20.90;70.60
6752;DHT22;3413;47.680;9.166;2023-05-28T00:56:47;20.80;70.60
6752;DHT22;3413;47.680;9.166;2023-05-28T01:01:51;20.60;70.40
6752;DHT22;3413;47.680;9.166;2023-05-28T01:06:53;20.50;71.20
6752;DHT22;3413;47.680;9.166;2023-05-28T01:11:59;20.40;70.60
6752;DHT22;3413;47.680;9.166;2023-05-28T01:17:01;20.40;70.50
6752;DHT22;3413;47.680;9.166;2023-05-28T01:22:05;20.20;70.50
6752;DHT22;3413;47.680;9.166;2023-05-28T01:27:07;20.00;70.60
6752;DHT22;3413;47.680;9.166;2023-05-28T01:32:09;19.90;70.60
6752;DHT22;3413;47.680;9.166;2023-05-28T01:37:13;19.80;70.50
6752;DHT22;3413;47.680;9.166;2023-05-28T01:42:17;19.70;70.40
6752;DHT22;3413;47.680;9.166;2023-05-28T01:47:19;19.60;70.40
6752;DHT22;3413;47.680;9.166;2023-05-28T01:52:22;19.60;70.60
6752;DHT22;3413;47.680;9.166;2023-05-28T01:57:24;19.50;70.40
6752;DHT22;3413;47.680;9.166;2023-05-28T02:02:26;19.40;70.40
6752;DHT22;3413;47.680;9.166;2023-05-28T02:07:28;19.20;70.40
6752;DHT22;3413;47.680;9.166;2023-05-28T02:12:31;19.00;70.40
6752;DHT22;3413;47.680;9.166;2023-05-28T02:17:33;19.00;70.50
6752;DHT22;3413;47.680;9.166;2023-05-28T02:22:36;18.90;70.40
6752;DHT22;3413;47.680;9.166;2023-05-28T02:27:38;18.80;70.40
6752;DHT22;3413;47.680;9.166;2023-05-28T02:32:40;18.70;70.30
6752;DHT22;3413;47.680;9.166;2023-05-28T02:37:43;18.50;70.40
6752;DHT22;3413;47.680;9.166;2023-05-28T02:42:45;18.40;70.50
6752;DHT22;3413;47.680;9.166;2023-05-28T02:47:48;18.30;70.40
6752;DHT22;3413;47.680;9.166;2023-05-28T02:52:54;18.20;70.40
6752;DHT22;3413;47.680;9.166;2023-05-28T02:57:56;18.20;70.60
6752;DHT22;3413;47.680;9.166;2023-05-28T03:02:59;18.10;70.50
6752;DHT22;3413;47.680;9.166;2023-05-28T03:08:02;18.00;70.60
6752;DHT22;3413;47.680;9.166;2023-05-28T03:13:04;17.90;70.60
6752;DHT22;3413;47.680;9.166;2023-05-28T03:18:06;17.90;70.60
6752;DHT22;3413;47.680;9.166;2023-05-28T03:23:12;17.80;70.60
6752;DHT22;3413;47.680;9.166;2023-05-28T03:28:31;17.70;70.60
6752;DHT22;3413;47.680;9.166;2023-05-28T03:33:49;17.60;71.30
6752;DHT22;3413;47.680;9.166;2023-05-28T03:38:51;17.50;70.60
6752;DHT22;3413;47.680;9.166;2023-05-28T03:43:55;17.50;70.60
6752;DHT22;3413;47.680;9.166;2023-05-28T03:48:58;17.50;70.60
6752;DHT22;3413;47.680;9.166;2023-05-28T03:54:01;17.50;70.60
6752;DHT22;3413;47.680;9.166;2023-05-28T04:04:30;17.40;70.80
6752;DHT22;3413;47.680;9.166;2023-05-28T04:09:33;17.40;70.60
6752;DHT22;3413;47.680;9.166;2023-05-28T04:14:35;17.40;70.70
6752;DHT22;3413;47.680;9.166;2023-05-28T04:19:39;17.30;70.80
6752;DHT22;3413;47.680;9.166;2023-05-28T04:24:43;17.20;70.90
6752;DHT22;3413;47.680;9.166;2023-05-28T04:29:46;17.20;70.90
6752;DHT22;3413;47.680;9.166;2023-05-28T04:34:50;17.20;71.00
6752;DHT22;3413;47.680;9.166;2023-05-28T04:39:55;17.20;71.30
6752;DHT22;3413;47.680;9.166;2023-05-28T04:44:58;17.10;71.30
6752;DHT22;3413;47.680;9.166;2023-05-28T04:50:05;17.10;71.30
6752;DHT22;3413;47.680;9.166;2023-05-28T04:55:08;17.10;71.60
6752;DHT22;3413;47.680;9.166;2023-05-28T05:00:11;17.10;71.60
6752;DHT22;3413;47.680;9.166;2023-05-28T05:05:17;17.10;71.80
6752;DHT22;3413;47.680;9.166;2023-05-28T05:10:20;17.20;71.80
6752;DHT22;3413;47.680;9.166;2023-05-28T05:15:24;17.20;71.80
6752;DHT22;3413;47.680;9.166;2023-05-28T05:20:28;17.20;72.10
6752;DHT22;3413;47.680;9.166;2023-05-28T05:25:32;17.40;72.20
6752;DHT22;3413;47.680;9.166;2023-05-28T05:30:35;17.50;72.50
6752;DHT22;3413;47.680;9.166;2023-05-28T05:35:38;17.70;72.70
6752;DHT22;3413;47.680;9.166;2023-05-28T05:40:53;17.80;72.70
6752;DHT22;3413;47.680;9.166;2023-05-28T05:46:21;17.90;72.90
6752;DHT22;3413;47.680;9.166;2023-05-28T05:51:24;18.00;73.00
6752;DHT22;3413;47.680;9.166;2023-05-28T05:56:27;18.20;73.20
6752;DHT22;3413;47.680;9.166;2023-05-28T06:01:31;18.30;73.30
6752;DHT22;3413;47.680;9.166;2023-05-28T06:06:34;18.30;73.50
6752;DHT22;3413;47.680;9.166;2023-05-28T06:12:04;18.40;73.40
6752;DHT22;3413;47.680;9.166;2023-05-28T06:17:07;18.50;73.70
6752;DHT22;3413;47.680;9.166;2023-05-28T06:22:12;18.60;73.70
6752;DHT22;3413;47.680;9.166;2023-05-28T06:27:19;18.70;73.70
6752;DHT22;3413;47.680;9.166;2023-05-28T06:32:22;18.80;73.90
6752;DHT22;3413;47.680;9.166;2023-05-28T06:37:25;19.00;73.80
6752;DHT22;3413;47.680;9.166;2023-05-28T06:42:29;19.20;73.90
6752;DHT22;3413;47.680;9.166;2023-05-28T06:47:53;19.30;74.00
6752;DHT22;3413;47.680;9.166;2023-05-28T06:52:56;19.50;74.10
6752;DHT22;3413;47.680;9.166;2023-05-28T06:58:02;19.60;74.20
6752;DHT22;3413;47.680;9.166;2023-05-28T07:03:25;19.70;74.20
6752;DHT22;3413;47.680;9.166;2023-05-28T07:08:49;19.90;74.30
6752;DHT22;3413;47.680;9.166;2023-05-28T07:13:53;20.00;74.30
6752;DHT22;3413;47.680;9.166;2023-05-28T07:18:59;20.10;74.40
6752;DHT22;3413;47.680;9.166;2023-05-28T07:24:08;20.20;74.40
6752;DHT22;3413;47.680;9.166;2023-05-28T07:29:15;20.40;74.60
6752;DHT22;3413;47.680;9.166;2023-05-28T07:34:21;20.50;74.70
6752;DHT22;3413;47.680;9.166;2023-05-28T07:39:30;20.60;74.70
6752;DHT22;3413;47.680;9.166;2023-05-28T07:44:41;20.70;74.70
6752;DHT22;3413;47.680;9.166;2023-05-28T07:49:48;20.90;74.90
6752;DHT22;3413;47.680;9.166;2023-05-28T07:54:59;21.00;74.90
6752;DHT22;3413;47.680;9.166;2023-05-28T08:00:09;21.20;75.10
6752;DHT22;3413;47.680;9.166;2023-05-28T08:05:39;21.30;75.20
6752;DHT22;3413;47.680;9.166;2023-05-28T08:11:06;21.60;75.40
6752;DHT22;3413;47.680;9.166;2023-05-28T08:16:48;21.70;75.40
6752;DHT22;3413;47.680;9.166;2023-05-28T08:38:37;22.20;75.60
6752;DHT22;3413;47.680;9.166;2023-05-28T08:44:40;22.20;75.40
6752;DHT22;3413;47.680;9.166;2023-05-28T08:49:50;22.40;75.50
6752;DHT22;3413;47.680;9.166;2023-05-28T08:54:58;22.60;75.70
6752;DHT22;3413;47.680;9.166;2023-05-28T09:00:00;22.70;75.60
6752;DHT22;3413;47.680;9.166;2023-05-28T09:05:24;22.80;75.70
6752;DHT22;3413;47.680;9.166;2023-05-28T09:10:28;22.90;75.60
6752;DHT22;3413;47.680;9.166;2023-05-28T09:15:30;23.00;75.70
6752;DHT22;3413;47.680;9.166;2023-05-28T09:20:35;23.20;75.90
6752;DHT22;3413;47.680;9.166;2023-05-28T09:25:38;23.30;75.90
6752;DHT22;3413;47.680;9.166;2023-05-28T09:31:05;23.40;75.90
6752;DHT22;3413;47.680;9.166;2023-05-28T09:36:07;23.50;76.20
6752;DHT22;3413;47.680;9.166;2023-05-28T09:46:21;23.70;76.20
6752;DHT22;3413;47.680;9.166;2023-05-28T09:51:32;23.80;76.30
6752;DHT22;3413;47.680;9.166;2023-05-28T09:56:34;24.10;76.40
6752;DHT22;3413;47.680;9.166;2023-05-28T10:01:40;24.30;76.70
6752;DHT22;3413;47.680;9.166;2023-05-28T10:06:44;24.50;77.00
6752;DHT22;3413;47.680;9.166;2023-05-28T10:11:59;24.90;77.20
6752;DHT22;3413;47.680;9.166;2023-05-28T10:17:03;25.20;77.30
6752;DHT22;3413;47.680;9.166;2023-05-28T10:22:05;25.40;77.20
6752;DHT22;3413;47.680;9.166;2023-05-28T10:27:13;25.70;77.50
6752;DHT22;3413;47.680;9.166;2023-05-28T10:32:17;25.90;77.70
6752;DHT22;3413;47.680;9.166;2023-05-28T10:37:23;26.20;77.90
6752;DHT22;3413;47.680;9.166;2023-05-28T10:42:26;26.50;78.00
6752;DHT22;3413;47.680;9.166;2023-05-28T10:47:54;26.90;78.10
6752;DHT22;3413;47.680;9.166;2023-05-28T10:53:07;27.30;78.10
6752;DHT22;3413;47.680;9.166;2023-05-28T10:58:09;27.60;78.20
6752;DHT22;3413;47.680;9.166;2023-05-28T11:03:14;27.90;78.20
6752;DHT22;3413;47.680;9.166;2023-05-28T11:08:16;28.20;78.20
6752;DHT22;3413;47.680;9.166;2023-05-28T11:13:19;28.40;78.10
6752;DHT22;3413;47.680;9.166;2023-05-28T11:18:22;28.60;78.70
6752;DHT22;3413;47.680;9.166;2023-05-28T11:23:24;28.60;77.90
6752;DHT22;3413;47.680;9.166;2023-05-28T11:28:26;28.60;77.70
6752;DHT22;3413;47.680;9.166;2023-05-28T11:33:29;28.70;77.60
6752;DHT22;3413;47.680;9.166;2023-05-28T11:38:31;28.90;77.60
6752;DHT22;3413;47.680;9.166;2023-05-28T11:43:33;29.00;77.40
6752;DHT22;3413;47.680;9.166;2023-05-28T11:48:37;29.20;77.30
6752;DHT22;3413;47.680;9.166;2023-05-28T11:53:41;29.40;77.30
6752;DHT22;3413;47.680;9.166;2023-05-28T11:58:46;29.50;77.10
6752;DHT22;3413;47.680;9.166;2023-05-28T12:03:50;29.60;76.90
6752;DHT22;3413;47.680;9.166;2023-05-28T12:08:53;29.80;76.90
6752;DHT22;3413;47.680;9.166;2023-05-28T12:13:55;30.00;76.70
6752;DHT22;3413;47.680;9.166;2023-05-28T12:19:01;30.20;76.60
6752;DHT22;3413;47.680;9.166;2023-05-28T12:24:13;30.30;76.40
6752;DHT22;3413;47.680;9.166;2023-05-28T12:29:15;30.40;76.30
6752;DHT22;3413;47.680;9.166;2023-05-28T12:34:17;30.40;76.20
6752;DHT22;3413;47.680;9.166;2023-05-28T12:39:19;30.60;76.30
6752;DHT22;3413;47.680;9.166;2023-05-28T12:44:22;30.80;76.10
6752;DHT22;3413;47.680;9.166;2023-05-28T12:49:24;30.80;76.00
6752;DHT22;3413;47.680;9.166;2023-05-28T12:54:26;30.90;76.00
6752;DHT22;3413;47.680;9.166;2023-05-28T12:59:28;30.80;75.80
6752;DHT22;3413;47.680;9.166;2023-05-28T13:04:31;30.80;75.40
6752;DHT22;3413;47.680;9.166;2023-05-28T13:09:33;30.80;75.30
6752;DHT22;3413;47.680;9.166;2023-05-28T13:14:35;30.90;75.00
6752;DHT22;3413;47.680;9.166;2023-05-28T13:19:37;31.00;74.80
6752;DHT22;3413;47.680;9.166;2023-05-28T13:24:39;31.10;74.70
6752;DHT22;3413;47.680;9.166;2023-05-28T13:29:46;31.10;74.60
6752;DHT22;3413;47.680;9.166;2023-05-28T13:34:48;31.10;74.40
6752;DHT22;3413;47.680;9.166;2023-05-28T13:39:50;31.20;74.20
6752;DHT22;3413;47.680;9.166;2023-05-28T13:44:53;31.20;73.70
6752;DHT22;3413;47.680;9.166;2023-05-28T13:49:55;31.00;73.60
6752;DHT22;3413;47.680;9.166;2023-05-28T13:54:57;31.20;73.50
6752;DHT22;3413;47.680;9.166;2023-05-28T13:59:59;31.30;73.30
6752;DHT22;3413;47.680;9.166;2023-05-28T14:05:10;31.40;73.00
6752;DHT22;3413;47.680;9.166;2023-05-28T14:10:12;31.40;72.80
6752;DHT22;3413;47.680;9.166;2023-05-28T14:15:14;31.40;72.70
6752;DHT22;3413;47.680;9.166;2023-05-28T14:20:17;31.40;72.60
6752;DHT22;3413;47.680;9.166;2023-05-28T14:25:20;31.40;72.40
6752;DHT22;3413;47.680;9.166;2023-05-28T14:30:23;31.50;72.20
6752;DHT22;3413;47.680;9.166;2023-05-28T14:35:25;31.60;72.20
6752;DHT22;3413;47.680;9.166;2023-05-28T14:40:27;31.80;72.00
6752;DHT22;3413;47.680;9.166;2023-05-28T14:45:29;31.90;71.90
6752;DHT22;3413;47.680;9.166;2023-05-28T14:50:31;31.90;71.70
6752;DHT22;3413;47.680;9.166;2023-05-28T14:55:33;31.80;71.70
6752;DHT22;3413;47.680;9.166;2023-05-28T15:00:35;31.70;71.50
6752;DHT22;3413;47.680;9.166;2023-05-28T15:05:37;31.60;71.30
6752;DHT22;3413;47.680;9.166;2023-05-28T15:10:41;31.50;71.10
6752;DHT22;3413;47.680;9.166;2023-05-28T15:15:43;31.50;70.90
6752;DHT22;3413;47.680;9.166;2023-05-28T15:20:45;31.40;70.70
6752;DHT22;3413;47.680;9.166;2023-05-28T15:25:47;31.50;71.30
6752;DHT22;3413;47.680;9.166;2023-05-28T15:30:49;31.50;70.10
6752;DHT22;3413;47.680;9.166;2023-05-28T15:35:51;31.30;70.00
6752;DHT22;3413;47.680;9.166;2023-05-28T15:40:54;31.50;70.10
6752;DHT22;3413;47.680;9.166;2023-05-28T15:45:56;31.50;70.00
6752;DHT22;3413;47.680;9.166;2023-05-28T15:50:58;31.60;69.80
6752;DHT22;3413;47.680;9.166;2023-05-28T15:56:00;31.40;69.60
6752;DHT22;3413;47.680;9.166;2023-05-28T16:01:02;31.50;69.60
6752;DHT22;3413;47.680;9.166;2023-05-28T16:06:05;31.50;69.40
6752;DHT22;3413;47.680;9.166;2023-05-28T16:11:11;31.30;69.10
6752;DHT22;3413;47.680;9.166;2023-05-28T16:16:14;31.20;68.90
6752;DHT22;3413;47.680;9.166;2023-05-28T16:21:16;31.10;68.80
6752;DHT22;3413;47.680;9.166;2023-05-28T16:26:19;30.90;68.50
6752;DHT22;3413;47.680;9.166;2023-05-28T16:31:22;30.90;68.50
6752;DHT22;3413;47.680;9.166;2023-05-28T16:36:25;30.80;68.20
6752;DHT22;3413;47.680;9.166;2023-05-28T16:41:28;30.90;68.20
6752;DHT22;3413;47.680;9.166;2023-05-28T16:46:30;30.90;68.10
6752;DHT22;3413;47.680;9.166;2023-05-28T16:51:32;31.00;68.00
6752;DHT22;3413;47.680;9.166;2023-05-28T16:56:34;30.90;67.90
6752;DHT22;3413;47.680;9.166;2023-05-28T17:01:37;30.60;67.90
6752;DHT22;3413;47.680;9.166;2023-05-28T17:06:39;30.50;67.80
6752;DHT22;3413;47.680;9.166;2023-05-28T17:11:51;30.40;67.70
6752;DHT22;3413;47.680;9.166;2023-05-28T17:16:53;30.40;67.70
6752;DHT22;3413;47.680;9.166;2023-05-28T17:21:55;30.30;67.60
6752;DHT22;3413;47.680;9.166;2023-05-28T17:26:58;30.10;67.30
6752;DHT22;3413;47.680;9.166;2023-05-28T17:32:01;30.00;67.30
6752;DHT22;3413;47.680;9.166;2023-05-28T17:37:03;29.80;67.10
6752;DHT22;3413;47.680;9.166;2023-05-28T17:42:06;29.70;67.00
6752;DHT22;3413;47.680;9.166;2023-05-28T17:47:08;29.50;66.90
6752;DHT22;3413;47.680;9.166;2023-05-28T17:52:10;29.40;66.90
6752;DHT22;3413;47.680;9.166;2023-05-28T17:57:12;29.30;66.70
6752;DHT22;3413;47.680;9.166;2023-05-28T18:02:14;29.10;66.50
6752;DHT22;3413;47.680;9.166;2023-05-28T18:07:16;28.70;66.20
6752;DHT22;3413;47.680;9.166;2023-05-28T18:12:18;28.40;66.10
6752;DHT22;3413;47.680;9.166;2023-05-28T18:17:20;28.30;66.00
6752;DHT22;3413;47.680;9.166;2023-05-28T18:22:26;28.10;65.90
6752;DHT22;3413;47.680;9.166;2023-05-28T18:27:28;28.00;65.80
6752;DHT22;3413;47.680;9.166;2023-05-28T18:32:30;27.90;65.60
6752;DHT22;3413;47.680;9.166;2023-05-28T18:37:32;27.70;65.40
6752;DHT22;3413;47.680;9.166;2023-05-28T18:42:34;27.40;65.30
6752;DHT22;3413;47.680;9.166;2023-05-28T18:47:36;27.30;65.10
6752;DHT22;3413;47.680;9.166;2023-05-28T18:52:38;27.20;65.10
6752;DHT22;3413;47.680;9.166;2023-05-28T18:57:39;27.10;64.80
6752;DHT22;3413;47.680;9.166;2023-05-28T19:02:41;27.00;64.70
6752;DHT22;3413;47.680;9.166;2023-05-28T19:07:43;26.80;64.50
6752;DHT22;3413;47.680;9.166;2023-05-28T19:12:45;26.70;64.60
6752;DHT22;3413;47.680;9.166;2023-05-28T19:17:47;26.50;64.40
6752;DHT22;3413;47.680;9.166;2023-05-28T19:22:49;26.40;64.30
6752;DHT22;3413;47.680;9.166;2023-05-28T19:27:51;26.30;64.90
6752;DHT22;3413;47.680;9.166;2023-05-28T19:32:53;26.10;63.90
6752;DHT22;3413;47.680;9.166;2023-05-28T19:37:55;25.90;63.90
6752;DHT22;3413;47.680;9.166;2023-05-28T19:42:57;25.80;63.90
6752;DHT22;3413;47.680;9.166;2023-05-28T19:47:59;25.70;63.90
6752;DHT22;3413;47.680;9.166;2023-05-28T19:53:02;25.60;63.70
6752;DHT22;3413;47.680;9.166;2023-05-28T19:58:07;25.20;63.70
6752;DHT22;3413;47.680;9.166;2023-05-28T20:03:10;25.00;63.60
6752;DHT22;3413;47.680;9.166;2023-05-28T20:08:12;24.90;63.60
6752;DHT22;3413;47.680;9.166;2023-05-28T20:13:14;24.80;63.50
6752;DHT22;3413;47.680;9.166;2023-05-28T20:18:16;24.70;63.30
6752;DHT22;3413;47.680;9.166;2023-05-28T20:23:18;24.70;63.30
6752;DHT22;3413;47.680;9.166;2023-05-28T20:28:20;24.50;63.20
6752;DHT22;3413;47.680;9.166;2023-05-28T20:33:22;24.40;63.20
6752;DHT22;3413;47.680;9.166;2023-05-28T20:38:24;24.30;63.20
6752;DHT22;3413;47.680;9.166;2023-05-28T20:43:27;24.10;63.10
6752;DHT22;3413;47.680;9.166;2023-05-28T20:48:31;23.90;63.20
6752;DHT22;3413;47.680;9.166;2023-05-28T20:53:33;23.60;63.10
6752;DHT22;3413;47.680;9.166;2023-05-28T20:58:35;23.50;63.00
6752;DHT22;3413;47.680;9.166;2023-05-28T21:03:39;23.30;63.20
6752;DHT22;3413;47.680;9.166;2023-05-28T21:08:41;23.20;62.90
6752;DHT22;3413;47.680;9.166;2023-05-28T21:13:44;23.10;62.90
6752;DHT22;3413;47.680;9.166;2023-05-28T21:18:46;23.00;62.70
6752;DHT22;3413;47.680;9.166;2023-05-28T21:23:48;22.90;62.70
6752;DHT22;3413;47.680;9.166;2023-05-28T21:28:50;22.80;62.70
6752;DHT22;3413;47.680;9.166;2023-05-28T21:33:52;22.60;62.60
6752;DHT22;3413;47.680;9.166;2023-05-28T21:38:54;22.50;63.20
6752;DHT22;3413;47.680;9.166;2023-05-28T21:43:56;22.40;62.30
6752;DHT22;3413;47.680;9.166;2023-05-28T21:48:58;22.40;62.20
6752;DHT22;3413;47.680;9.166;2023-05-28T21:54:00;22.40;62.20
6752;DHT22;3413;47.680;9.166;2023-05-28T21:59:02;22.40;62.30
6752;DHT22;3413;47.680;9.166;2023-05-28T22:04:04;22.40;62.20
6752;DHT22;3413;47.680;9.166;2023-05-28T22:09:06;22.40;62.10
6752;DHT22;3413;47.680;9.166;2023-05-28T22:14:17;22.50;62.90
6752;DHT22;3413;47.680;9.166;2023-05-28T22:19:19;22.50;62.10
6752;DHT22;3413;47.680;9.166;2023-05-28T22:24:21;22.40;62.00
6752;DHT22;3413;47.680;9.166;2023-05-28T22:29:23;22.30;62.00
6752;DHT22;3413;47.680;9.166;2023-05-28T22:34:25;22.20;62.10
6752;DHT22;3413;47.680;9.166;2023-05-28T22:39:27;22.00;62.00
6752;DHT22;3413;47.680;9.166;2023-05-28T22:44:29;21.80;62.00
6752;DHT22;3413;47.680;9.166;2023-05-28T22:49:31;21.70;62.00
6752;DHT22;3413;47.680;9.166;2023-05-28T22:54:33;21.50;62.00
6752;DHT22;3413;47.680;9.166;2023-05-28T22:59:35;21.40;61.90
6752;DHT22;3413;47.680;9.166;2023-05-28T23:04:37;21.30;61.90
6752;DHT22;3413;47.680;9.166;2023-05-28T23:09:39;21.20;61.90
6752;DHT22;3413;47.680;9.166;2023-05-28T23:14:41;21.20;61.80
6752;DHT22;3413;47.680;9.166;2023-05-28T23:19:44;21.30;61.80
6752;DHT22;3413;47.680;9.166;2023-05-28T23:24:49;21.40;61.80
6752;DHT22;3413;47.680;9.166;2023-05-28T23:29:51;21.40;61.70
6752;DHT22;3413;47.680;9.166;2023-05-28T23:34:53;21.40;61.70
6752;DHT22;3413;47.680;9.166;2023-05-28T23:39:55;21.40;61.70
6752;DHT22;3413;47.680;9.166;2023-05-28T23:44:57;21.30;61.90
6752;DHT22;3413;47.680;9.166;2023-05-28T23:49:59;21.20;62.00
6752;DHT22;3413;47.680;9.166;2023-05-28T23:55:01;21.00;62.10
